Terminal Aerodrome Forecast
Issued by NWS

Home | Current Version | Previous Version | Text Only | Print | Product List | Glossary On
Versions: 1 2 3 4 5 6 7 8 9 10 11 12 13 14 15 16 17 18 19 20 21 22 23 24 25 26 27 28 29
000
FTUS45 KBOI 300219 AAA
TAFMYL
TAF AMD
KMYL 300219Z 3002/3024 20010KT P6SM -TSRA SCT060CB BKN100
     FM300400 20010KT P6SM VCSH SCT060 BKN100
     FM300900 VRB05KT P6SM BKN100
     FM301600 20009G15KT P6SM SCT100=

USA.gov is the U.S. government's official web portal to all federal, state and local government web resources and services.